Onon Hill, New York
Current Conditions -  °F | °C
As of 6:54 AM on Sunday 21 Dec 2014 (Local Time) from KSYR Reporting Station
Overcast Overcast  
Wind Chill: 27°   Ceiling: 2600
Heat Index: 27°   Visibility: 10mi
Dew Point: 24°   Wind: 3mph
Humidity: 89%   Direction: 130°SE
Pressure: 30.3"   Gusts: NA
Location:  42.9779°N, 76.2271°W
Report Text: KSYR 211154Z 13003KT 10SM OVC026 M03/M04 A3030 RMK AO2 SNE28 SLP263 P0000 60000 T10281044 11028 21044 53002 $
Loading
Personal Weather Stations






























Interactive Weather Map New forecast layout! Learn more

10-Day Weather Forecast

Advertisements
Track Severe Weather on mobile